sensor_id;sensor_type;location;lat;lon;timestamp;P1;durP1;ratioP1;P2;durP2;ratioP2
70707;SDS011;58277;47.316;18.908;2024-03-06T00:01:29;45.13;;;17.17;;
70707;SDS011;58277;47.316;18.908;2024-03-06T00:03:52;46.22;;;17.70;;
70707;SDS011;58277;47.316;18.908;2024-03-06T00:06:15;47.23;;;16.40;;
70707;SDS011;58277;47.316;18.908;2024-03-06T00:08:38;44.92;;;17.15;;
70707;SDS011;58277;47.316;18.908;2024-03-06T00:11:04;48.88;;;17.58;;
70707;SDS011;58277;47.316;18.908;2024-03-06T00:13:27;47.17;;;17.27;;
70707;SDS011;58277;47.316;18.908;2024-03-06T00:15:50;46.22;;;17.52;;
70707;SDS011;58277;47.316;18.908;2024-03-06T00:18:16;44.87;;;16.77;;
70707;SDS011;58277;47.316;18.908;2024-03-06T00:20:48;49.90;;;18.02;;
70707;SDS011;58277;47.316;18.908;2024-03-06T00:23:11;47.08;;;17.05;;
70707;SDS011;58277;47.316;18.908;2024-03-06T00:25:34;47.15;;;17.25;;
70707;SDS011;58277;47.316;18.908;2024-03-06T00:27:57;46.30;;;17.02;;
70707;SDS011;58277;47.316;18.908;2024-03-06T00:30:19;46.57;;;16.47;;
70707;SDS011;58277;47.316;18.908;2024-03-06T00:32:43;46.03;;;17.27;;
70707;SDS011;58277;47.316;18.908;2024-03-06T00:35:05;50.30;;;17.73;;
70707;SDS011;58277;47.316;18.908;2024-03-06T00:37:29;47.00;;;16.52;;
70707;SDS011;58277;47.316;18.908;2024-03-06T00:39:51;47.33;;;17.15;;
70707;SDS011;58277;47.316;18.908;2024-03-06T00:42:14;47.57;;;17.47;;
70707;SDS011;58277;47.316;18.908;2024-03-06T00:44:38;46.47;;;16.88;;
70707;SDS011;58277;47.316;18.908;2024-03-06T00:47:00;46.95;;;17.80;;
70707;SDS011;58277;47.316;18.908;2024-03-06T00:49:23;46.92;;;17.17;;
70707;SDS011;58277;47.316;18.908;2024-03-06T00:51:46;46.03;;;18.05;;
70707;SDS011;58277;47.316;18.908;2024-03-06T00:54:11;42.73;;;16.33;;
70707;SDS011;58277;47.316;18.908;2024-03-06T00:56:37;44.17;;;16.83;;
70707;SDS011;58277;47.316;18.908;2024-03-06T00:59:02;44.50;;;17.00;;
70707;SDS011;58277;47.316;18.908;2024-03-06T01:01:25;45.95;;;16.60;;
70707;SDS011;58277;47.316;18.908;2024-03-06T01:03:50;49.97;;;17.38;;
70707;SDS011;58277;47.316;18.908;2024-03-06T01:06:13;47.13;;;17.97;;
70707;SDS011;58277;47.316;18.908;2024-03-06T01:08:39;44.92;;;16.48;;
70707;SDS011;58277;47.316;18.908;2024-03-06T01:11:01;48.28;;;17.98;;
70707;SDS011;58277;47.316;18.908;2024-03-06T01:13:26;46.38;;;16.70;;
70707;SDS011;58277;47.316;18.908;2024-03-06T01:15:49;46.42;;;17.02;;
70707;SDS011;58277;47.316;18.908;2024-03-06T01:18:12;46.80;;;17.37;;
70707;SDS011;58277;47.316;18.908;2024-03-06T01:20:37;46.90;;;16.77;;
70707;SDS011;58277;47.316;18.908;2024-03-06T01:22:59;43.80;;;16.83;;
70707;SDS011;58277;47.316;18.908;2024-03-06T01:25:22;45.25;;;17.58;;
70707;SDS011;58277;47.316;18.908;2024-03-06T01:27:45;44.33;;;16.35;;
70707;SDS011;58277;47.316;18.908;2024-03-06T01:30:08;48.43;;;16.90;;
70707;SDS011;58277;47.316;18.908;2024-03-06T01:32:31;46.95;;;17.00;;
70707;SDS011;58277;47.316;18.908;2024-03-06T01:34:56;47.80;;;16.98;;
70707;SDS011;58277;47.316;18.908;2024-03-06T01:37:18;49.17;;;17.50;;
70707;SDS011;58277;47.316;18.908;2024-03-06T01:39:41;45.88;;;17.42;;
70707;SDS011;58277;47.316;18.908;2024-03-06T01:42:04;50.67;;;18.07;;
70707;SDS011;58277;47.316;18.908;2024-03-06T01:44:27;49.28;;;17.30;;
70707;SDS011;58277;47.316;18.908;2024-03-06T01:46:49;49.30;;;17.63;;
70707;SDS011;58277;47.316;18.908;2024-03-06T01:49:13;48.25;;;17.17;;
70707;SDS011;58277;47.316;18.908;2024-03-06T01:51:54;50.95;;;17.48;;
70707;SDS011;58277;47.316;18.908;2024-03-06T01:54:18;46.17;;;17.33;;
70707;SDS011;58277;47.316;18.908;2024-03-06T01:56:45;49.40;;;16.98;;
70707;SDS011;58277;47.316;18.908;2024-03-06T01:59:12;48.92;;;17.35;;
70707;SDS011;58277;47.316;18.908;2024-03-06T02:01:46;50.28;;;17.98;;
70707;SDS011;58277;47.316;18.908;2024-03-06T02:04:09;48.30;;;17.55;;
70707;SDS011;58277;47.316;18.908;2024-03-06T02:06:34;51.73;;;18.23;;
70707;SDS011;58277;47.316;18.908;2024-03-06T02:08:57;45.40;;;17.27;;
70707;SDS011;58277;47.316;18.908;2024-03-06T02:11:20;54.60;;;18.17;;
70707;SDS011;58277;47.316;18.908;2024-03-06T02:13:43;51.22;;;18.30;;
70707;SDS011;58277;47.316;18.908;2024-03-06T02:16:06;47.72;;;17.83;;
70707;SDS011;58277;47.316;18.908;2024-03-06T02:18:30;45.87;;;17.43;;
70707;SDS011;58277;47.316;18.908;2024-03-06T02:20:52;52.38;;;17.95;;
70707;SDS011;58277;47.316;18.908;2024-03-06T02:23:15;52.55;;;18.30;;
70707;SDS011;58277;47.316;18.908;2024-03-06T02:25:40;49.53;;;17.77;;
70707;SDS011;58277;47.316;18.908;2024-03-06T02:28:03;51.60;;;18.95;;
70707;SDS011;58277;47.316;18.908;2024-03-06T02:30:28;51.47;;;18.20;;
70707;SDS011;58277;47.316;18.908;2024-03-06T02:32:57;51.78;;;18.00;;
70707;SDS011;58277;47.316;18.908;2024-03-06T02:35:21;50.50;;;18.25;;
70707;SDS011;58277;47.316;18.908;2024-03-06T02:37:44;52.17;;;18.98;;
70707;SDS011;58277;47.316;18.908;2024-03-06T02:40:07;55.00;;;18.40;;
70707;SDS011;58277;47.316;18.908;2024-03-06T02:42:32;53.53;;;19.53;;
70707;SDS011;58277;47.316;18.908;2024-03-06T02:44:55;49.75;;;18.10;;
70707;SDS011;58277;47.316;18.908;2024-03-06T02:47:18;52.75;;;18.33;;
70707;SDS011;58277;47.316;18.908;2024-03-06T02:49:41;49.90;;;18.65;;
70707;SDS011;58277;47.316;18.908;2024-03-06T02:52:04;51.15;;;18.73;;
70707;SDS011;58277;47.316;18.908;2024-03-06T02:54:27;54.27;;;18.03;;
70707;SDS011;58277;47.316;18.908;2024-03-06T02:56:51;53.70;;;19.10;;
70707;SDS011;58277;47.316;18.908;2024-03-06T02:59:14;56.05;;;19.25;;
70707;SDS011;58277;47.316;18.908;2024-03-06T03:01:38;53.80;;;19.38;;
70707;SDS011;58277;47.316;18.908;2024-03-06T03:04:01;50.95;;;18.80;;
70707;SDS011;58277;47.316;18.908;2024-03-06T03:06:24;55.20;;;18.80;;
70707;SDS011;58277;47.316;18.908;2024-03-06T03:08:47;58.42;;;19.35;;
70707;SDS011;58277;47.316;18.908;2024-03-06T03:11:10;56.38;;;19.95;;
70707;SDS011;58277;47.316;18.908;2024-03-06T03:13:33;54.10;;;19.23;;
70707;SDS011;58277;47.316;18.908;2024-03-06T03:15:56;61.00;;;20.35;;
70707;SDS011;58277;47.316;18.908;2024-03-06T03:18:19;56.37;;;19.53;;
70707;SDS011;58277;47.316;18.908;2024-03-06T03:20:42;57.13;;;19.88;;
70707;SDS011;58277;47.316;18.908;2024-03-06T03:23:05;54.80;;;20.00;;
70707;SDS011;58277;47.316;18.908;2024-03-06T03:25:34;57.97;;;20.55;;
70707;SDS011;58277;47.316;18.908;2024-03-06T03:27:56;61.10;;;20.60;;
70707;SDS011;58277;47.316;18.908;2024-03-06T03:30:19;57.77;;;19.47;;
70707;SDS011;58277;47.316;18.908;2024-03-06T03:32:44;57.53;;;19.77;;
70707;SDS011;58277;47.316;18.908;2024-03-06T03:35:07;57.03;;;19.73;;
70707;SDS011;58277;47.316;18.908;2024-03-06T03:37:31;54.25;;;19.90;;
70707;SDS011;58277;47.316;18.908;2024-03-06T03:39:54;58.88;;;20.48;;
70707;SDS011;58277;47.316;18.908;2024-03-06T03:42:17;58.47;;;20.33;;
70707;SDS011;58277;47.316;18.908;2024-03-06T03:44:40;55.78;;;20.20;;
70707;SDS011;58277;47.316;18.908;2024-03-06T03:47:02;56.42;;;20.63;;
70707;SDS011;58277;47.316;18.908;2024-03-06T03:49:25;58.13;;;20.42;;
70707;SDS011;58277;47.316;18.908;2024-03-06T03:51:48;58.22;;;20.00;;
70707;SDS011;58277;47.316;18.908;2024-03-06T03:54:11;56.63;;;19.33;;
70707;SDS011;58277;47.316;18.908;2024-03-06T03:56:35;52.78;;;18.92;;
70707;SDS011;58277;47.316;18.908;2024-03-06T03:58:58;57.10;;;20.85;;
70707;SDS011;58277;47.316;18.908;2024-03-06T04:01:21;55.88;;;18.98;;
70707;SDS011;58277;47.316;18.908;2024-03-06T04:03:45;53.78;;;20.02;;
70707;SDS011;58277;47.316;18.908;2024-03-06T04:06:08;54.33;;;19.33;;
70707;SDS011;58277;47.316;18.908;2024-03-06T04:08:31;53.90;;;20.30;;
70707;SDS011;58277;47.316;18.908;2024-03-06T04:10:54;54.15;;;18.92;;
70707;SDS011;58277;47.316;18.908;2024-03-06T04:13:17;57.10;;;19.92;;
70707;SDS011;58277;47.316;18.908;2024-03-06T04:15:41;55.47;;;19.38;;
70707;SDS011;58277;47.316;18.908;2024-03-06T04:18:04;58.23;;;19.77;;
70707;SDS011;58277;47.316;18.908;2024-03-06T04:20:28;56.97;;;19.38;;
70707;SDS011;58277;47.316;18.908;2024-03-06T04:22:50;56.60;;;20.35;;
70707;SDS011;58277;47.316;18.908;2024-03-06T04:25:14;56.03;;;19.85;;
70707;SDS011;58277;47.316;18.908;2024-03-06T04:27:37;59.50;;;20.40;;
70707;SDS011;58277;47.316;18.908;2024-03-06T04:29:59;58.43;;;20.23;;
70707;SDS011;58277;47.316;18.908;2024-03-06T04:32:22;59.78;;;20.63;;
70707;SDS011;58277;47.316;18.908;2024-03-06T04:34:45;56.22;;;20.02;;
70707;SDS011;58277;47.316;18.908;2024-03-06T04:37:09;56.92;;;19.98;;
70707;SDS011;58277;47.316;18.908;2024-03-06T04:39:32;56.47;;;19.85;;
70707;SDS011;58277;47.316;18.908;2024-03-06T04:41:55;58.43;;;19.53;;
70707;SDS011;58277;47.316;18.908;2024-03-06T04:44:17;52.03;;;19.25;;
70707;SDS011;58277;47.316;18.908;2024-03-06T04:46:40;57.40;;;18.85;;
70707;SDS011;58277;47.316;18.908;2024-03-06T04:49:03;59.60;;;19.08;;
70707;SDS011;58277;47.316;18.908;2024-03-06T04:51:26;58.05;;;20.13;;
70707;SDS011;58277;47.316;18.908;2024-03-06T04:53:48;57.70;;;19.47;;
70707;SDS011;58277;47.316;18.908;2024-03-06T04:56:11;58.58;;;19.75;;
70707;SDS011;58277;47.316;18.908;2024-03-06T04:58:35;62.15;;;20.52;;
70707;SDS011;58277;47.316;18.908;2024-03-06T05:00:57;59.00;;;19.75;;
70707;SDS011;58277;47.316;18.908;2024-03-06T05:03:21;60.15;;;21.33;;
70707;SDS011;58277;47.316;18.908;2024-03-06T05:06:05;59.63;;;19.97;;
70707;SDS011;58277;47.316;18.908;2024-03-06T05:08:46;58.97;;;19.98;;
70707;SDS011;58277;47.316;18.908;2024-03-06T05:11:26;56.92;;;19.35;;
70707;SDS011;58277;47.316;18.908;2024-03-06T05:14:07;60.67;;;19.70;;
70707;SDS011;58277;47.316;18.908;2024-03-06T05:16:47;59.13;;;19.70;;
70707;SDS011;58277;47.316;18.908;2024-03-06T05:19:27;59.10;;;20.23;;
70707;SDS011;58277;47.316;18.908;2024-03-06T05:22:14;58.47;;;19.95;;
70707;SDS011;58277;47.316;18.908;2024-03-06T05:24:55;61.10;;;20.48;;
70707;SDS011;58277;47.316;18.908;2024-03-06T05:27:35;60.53;;;19.60;;
70707;SDS011;58277;47.316;18.908;2024-03-06T05:30:15;63.30;;;20.33;;
70707;SDS011;58277;47.316;18.908;2024-03-06T05:32:56;59.77;;;20.00;;
70707;SDS011;58277;47.316;18.908;2024-03-06T05:35:37;58.63;;;20.30;;
70707;SDS011;58277;47.316;18.908;2024-03-06T05:38:17;57.85;;;20.27;;
70707;SDS011;58277;47.316;18.908;2024-03-06T05:40:57;58.28;;;20.05;;
70707;SDS011;58277;47.316;18.908;2024-03-06T05:43:37;57.40;;;20.30;;
70707;SDS011;58277;47.316;18.908;2024-03-06T05:46:17;58.07;;;20.20;;
70707;SDS011;58277;47.316;18.908;2024-03-06T05:48:59;59.08;;;20.95;;
70707;SDS011;58277;47.316;18.908;2024-03-06T05:51:41;54.30;;;19.92;;
70707;SDS011;58277;47.316;18.908;2024-03-06T05:54:21;55.55;;;19.58;;
70707;SDS011;58277;47.316;18.908;2024-03-06T05:57:02;53.22;;;19.60;;
70707;SDS011;58277;47.316;18.908;2024-03-06T05:59:42;55.37;;;19.10;;
70707;SDS011;58277;47.316;18.908;2024-03-06T06:02:05;59.28;;;21.67;;
70707;SDS011;58277;47.316;18.908;2024-03-06T06:04:28;56.25;;;20.52;;
70707;SDS011;58277;47.316;18.908;2024-03-06T06:06:56;48.05;;;18.83;;
70707;SDS011;58277;47.316;18.908;2024-03-06T06:09:18;52.33;;;19.92;;
70707;SDS011;58277;47.316;18.908;2024-03-06T06:11:42;50.53;;;18.50;;
70707;SDS011;58277;47.316;18.908;2024-03-06T06:14:05;50.88;;;19.02;;
70707;SDS011;58277;47.316;18.908;2024-03-06T06:16:34;52.85;;;20.23;;
70707;SDS011;58277;47.316;18.908;2024-03-06T06:19:01;47.50;;;20.23;;
70707;SDS011;58277;47.316;18.908;2024-03-06T06:21:24;53.80;;;20.70;;
70707;SDS011;58277;47.316;18.908;2024-03-06T06:23:46;53.07;;;20.83;;
70707;SDS011;58277;47.316;18.908;2024-03-06T06:26:09;50.63;;;20.30;;
70707;SDS011;58277;47.316;18.908;2024-03-06T06:28:35;51.00;;;20.90;;
70707;SDS011;58277;47.316;18.908;2024-03-06T06:30:59;49.80;;;19.83;;
70707;SDS011;58277;47.316;18.908;2024-03-06T06:33:21;50.03;;;20.67;;
70707;SDS011;58277;47.316;18.908;2024-03-06T06:35:47;51.70;;;20.90;;
70707;SDS011;58277;47.316;18.908;2024-03-06T06:38:10;48.97;;;20.00;;
70707;SDS011;58277;47.316;18.908;2024-03-06T06:40:33;47.30;;;19.25;;
70707;SDS011;58277;47.316;18.908;2024-03-06T06:42:56;48.63;;;20.13;;
70707;SDS011;58277;47.316;18.908;2024-03-06T06:45:19;49.65;;;19.75;;
70707;SDS011;58277;47.316;18.908;2024-03-06T06:47:42;49.27;;;19.67;;
70707;SDS011;58277;47.316;18.908;2024-03-06T06:50:05;47.22;;;19.55;;
70707;SDS011;58277;47.316;18.908;2024-03-06T06:52:31;46.60;;;19.88;;
70707;SDS011;58277;47.316;18.908;2024-03-06T06:54:57;50.20;;;19.48;;
70707;SDS011;58277;47.316;18.908;2024-03-06T06:57:21;46.78;;;19.65;;
70707;SDS011;58277;47.316;18.908;2024-03-06T06:59:43;43.93;;;18.90;;
70707;SDS011;58277;47.316;18.908;2024-03-06T07:02:06;46.67;;;19.52;;
70707;SDS011;58277;47.316;18.908;2024-03-06T07:04:29;47.90;;;19.40;;
70707;SDS011;58277;47.316;18.908;2024-03-06T07:06:52;43.63;;;19.45;;
70707;SDS011;58277;47.316;18.908;2024-03-06T07:09:15;45.78;;;19.50;;
70707;SDS011;58277;47.316;18.908;2024-03-06T07:11:38;45.20;;;18.80;;
70707;SDS011;58277;47.316;18.908;2024-03-06T07:14:01;44.35;;;19.92;;
70707;SDS011;58277;47.316;18.908;2024-03-06T07:16:24;43.17;;;18.77;;
70707;SDS011;58277;47.316;18.908;2024-03-06T07:18:47;45.10;;;18.60;;
70707;SDS011;58277;47.316;18.908;2024-03-06T07:21:10;56.05;;;25.30;;
70707;SDS011;58277;47.316;18.908;2024-03-06T07:23:33;45.13;;;20.13;;
70707;SDS011;58277;47.316;18.908;2024-03-06T07:25:56;41.55;;;18.80;;
70707;SDS011;58277;47.316;18.908;2024-03-06T07:28:20;44.03;;;20.17;;
70707;SDS011;58277;47.316;18.908;2024-03-06T07:30:46;40.72;;;19.42;;
70707;SDS011;58277;47.316;18.908;2024-03-06T07:33:09;42.60;;;19.33;;
70707;SDS011;58277;47.316;18.908;2024-03-06T07:35:32;42.27;;;18.90;;
70707;SDS011;58277;47.316;18.908;2024-03-06T07:37:55;40.40;;;18.25;;
70707;SDS011;58277;47.316;18.908;2024-03-06T07:40:18;43.40;;;19.92;;
70707;SDS011;58277;47.316;18.908;2024-03-06T07:42:44;39.33;;;18.88;;
70707;SDS011;58277;47.316;18.908;2024-03-06T07:45:07;41.00;;;18.90;;
70707;SDS011;58277;47.316;18.908;2024-03-06T07:47:31;41.73;;;19.13;;
70707;SDS011;58277;47.316;18.908;2024-03-06T07:49:54;39.30;;;19.02;;
70707;SDS011;58277;47.316;18.908;2024-03-06T07:52:17;39.78;;;19.10;;
70707;SDS011;58277;47.316;18.908;2024-03-06T07:54:40;38.97;;;18.77;;
70707;SDS011;58277;47.316;18.908;2024-03-06T07:57:03;45.70;;;21.45;;
70707;SDS011;58277;47.316;18.908;2024-03-06T07:59:26;40.77;;;19.13;;
70707;SDS011;58277;47.316;18.908;2024-03-06T08:01:49;40.35;;;19.27;;
70707;SDS011;58277;47.316;18.908;2024-03-06T08:04:16;40.72;;;19.58;;
70707;SDS011;58277;47.316;18.908;2024-03-06T08:06:39;39.38;;;18.20;;
70707;SDS011;58277;47.316;18.908;2024-03-06T08:09:04;37.30;;;17.98;;
70707;SDS011;58277;47.316;18.908;2024-03-06T08:11:30;40.50;;;18.87;;
70707;SDS011;58277;47.316;18.908;2024-03-06T08:13:59;41.88;;;18.35;;
70707;SDS011;58277;47.316;18.908;2024-03-06T08:16:24;39.35;;;17.65;;
70707;SDS011;58277;47.316;18.908;2024-03-06T08:18:47;39.90;;;17.48;;
70707;SDS011;58277;47.316;18.908;2024-03-06T08:21:10;38.72;;;17.38;;
70707;SDS011;58277;47.316;18.908;2024-03-06T08:23:33;37.83;;;17.60;;
70707;SDS011;58277;47.316;18.908;2024-03-06T08:25:56;36.78;;;16.98;;
70707;SDS011;58277;47.316;18.908;2024-03-06T08:28:19;39.22;;;17.48;;
70707;SDS011;58277;47.316;18.908;2024-03-06T08:30:42;37.78;;;17.45;;
70707;SDS011;58277;47.316;18.908;2024-03-06T08:33:06;34.78;;;17.10;;
70707;SDS011;58277;47.316;18.908;2024-03-06T08:35:29;37.53;;;16.93;;
70707;SDS011;58277;47.316;18.908;2024-03-06T08:37:54;36.80;;;16.77;;
70707;SDS011;58277;47.316;18.908;2024-03-06T08:40:17;40.67;;;17.40;;
70707;SDS011;58277;47.316;18.908;2024-03-06T08:42:40;43.30;;;17.55;;
70707;SDS011;58277;47.316;18.908;2024-03-06T08:45:07;37.10;;;17.20;;
70707;SDS011;58277;47.316;18.908;2024-03-06T08:47:30;35.00;;;16.60;;
70707;SDS011;58277;47.316;18.908;2024-03-06T08:49:56;36.70;;;16.17;;
70707;SDS011;58277;47.316;18.908;2024-03-06T08:52:19;35.92;;;16.67;;
70707;SDS011;58277;47.316;18.908;2024-03-06T08:54:43;34.17;;;16.10;;
70707;SDS011;58277;47.316;18.908;2024-03-06T08:57:06;33.75;;;15.90;;
70707;SDS011;58277;47.316;18.908;2024-03-06T08:59:29;35.83;;;16.03;;
70707;SDS011;58277;47.316;18.908;2024-03-06T09:01:55;34.35;;;16.63;;
70707;SDS011;58277;47.316;18.908;2024-03-06T09:04:19;34.72;;;16.15;;
70707;SDS011;58277;47.316;18.908;2024-03-06T09:06:42;34.03;;;16.25;;
70707;SDS011;58277;47.316;18.908;2024-03-06T09:09:05;34.65;;;16.10;;
70707;SDS011;58277;47.316;18.908;2024-03-06T09:11:28;34.60;;;16.20;;
70707;SDS011;58277;47.316;18.908;2024-03-06T09:13:51;32.08;;;15.52;;
70707;SDS011;58277;47.316;18.908;2024-03-06T09:16:14;30.63;;;15.05;;
70707;SDS011;58277;47.316;18.908;2024-03-06T09:18:37;32.83;;;15.60;;
70707;SDS011;58277;47.316;18.908;2024-03-06T09:21:03;31.48;;;15.38;;
70707;SDS011;58277;47.316;18.908;2024-03-06T09:23:26;32.50;;;15.03;;
70707;SDS011;58277;47.316;18.908;2024-03-06T09:25:51;34.53;;;16.70;;
70707;SDS011;58277;47.316;18.908;2024-03-06T09:28:15;30.40;;;15.35;;
70707;SDS011;58277;47.316;18.908;2024-03-06T09:30:37;30.42;;;15.05;;
70707;SDS011;58277;47.316;18.908;2024-03-06T09:33:00;32.88;;;14.70;;
70707;SDS011;58277;47.316;18.908;2024-03-06T09:35:23;29.37;;;13.87;;
70707;SDS011;58277;47.316;18.908;2024-03-06T09:37:46;29.63;;;14.18;;
70707;SDS011;58277;47.316;18.908;2024-03-06T09:40:09;31.77;;;15.30;;
70707;SDS011;58277;47.316;18.908;2024-03-06T09:42:33;29.90;;;14.10;;
70707;SDS011;58277;47.316;18.908;2024-03-06T09:44:56;31.65;;;15.35;;
70707;SDS011;58277;47.316;18.908;2024-03-06T09:47:22;30.00;;;15.20;;
70707;SDS011;58277;47.316;18.908;2024-03-06T09:49:47;32.42;;;15.07;;
70707;SDS011;58277;47.316;18.908;2024-03-06T09:52:11;32.20;;;15.38;;
70707;SDS011;58277;47.316;18.908;2024-03-06T09:54:36;32.10;;;15.27;;
70707;SDS011;58277;47.316;18.908;2024-03-06T09:57:02;33.40;;;15.52;;
70707;SDS011;58277;47.316;18.908;2024-03-06T09:59:25;29.47;;;14.47;;
70707;SDS011;58277;47.316;18.908;2024-03-06T10:01:50;29.33;;;13.25;;
70707;SDS011;58277;47.316;18.908;2024-03-06T10:04:17;32.42;;;15.35;;
70707;SDS011;58277;47.316;18.908;2024-03-06T10:06:46;33.95;;;15.35;;
70707;SDS011;58277;47.316;18.908;2024-03-06T10:09:11;30.63;;;14.07;;
70707;SDS011;58277;47.316;18.908;2024-03-06T10:11:38;35.43;;;13.03;;
70707;SDS011;58277;47.316;18.908;2024-03-06T10:14:03;31.55;;;12.98;;
70707;SDS011;58277;47.316;18.908;2024-03-06T10:16:25;28.88;;;12.40;;
70707;SDS011;58277;47.316;18.908;2024-03-06T10:18:48;27.63;;;12.40;;
70707;SDS011;58277;47.316;18.908;2024-03-06T10:21:12;28.25;;;13.02;;
70707;SDS011;58277;47.316;18.908;2024-03-06T10:23:41;26.03;;;12.90;;
70707;SDS011;58277;47.316;18.908;2024-03-06T10:26:06;24.60;;;11.93;;
70707;SDS011;58277;47.316;18.908;2024-03-06T10:28:30;25.95;;;12.40;;
70707;SDS011;58277;47.316;18.908;2024-03-06T10:31:02;26.30;;;12.50;;
70707;SDS011;58277;47.316;18.908;2024-03-06T10:33:31;25.05;;;12.02;;
70707;SDS011;58277;47.316;18.908;2024-03-06T10:35:54;28.57;;;13.03;;
70707;SDS011;58277;47.316;18.908;2024-03-06T10:38:19;26.08;;;12.85;;
70707;SDS011;58277;47.316;18.908;2024-03-06T10:40:43;24.83;;;12.40;;
70707;SDS011;58277;47.316;18.908;2024-03-06T10:43:06;25.55;;;11.77;;
70707;SDS011;58277;47.316;18.908;2024-03-06T10:45:49;24.88;;;11.82;;
70707;SDS011;58277;47.316;18.908;2024-03-06T10:48:21;24.67;;;11.77;;
70707;SDS011;58277;47.316;18.908;2024-03-06T10:50:49;25.75;;;11.20;;
70707;SDS011;58277;47.316;18.908;2024-03-06T10:53:14;21.80;;;10.57;;
70707;SDS011;58277;47.316;18.908;2024-03-06T10:55:44;23.00;;;10.65;;
70707;SDS011;58277;47.316;18.908;2024-03-06T10:58:10;21.50;;;11.52;;
70707;SDS011;58277;47.316;18.908;2024-03-06T11:00:34;22.73;;;10.67;;
70707;SDS011;58277;47.316;18.908;2024-03-06T11:03:06;22.52;;;11.32;;
70707;SDS011;58277;47.316;18.908;2024-03-06T11:05:31;23.85;;;10.98;;
70707;SDS011;58277;47.316;18.908;2024-03-06T11:07:54;22.52;;;11.20;;
70707;SDS011;58277;47.316;18.908;2024-03-06T11:10:31;22.42;;;11.45;;
70707;SDS011;58277;47.316;18.908;2024-03-06T11:12:58;19.80;;;10.10;;
70707;SDS011;58277;47.316;18.908;2024-03-06T11:15:23;21.58;;;11.13;;
70707;SDS011;58277;47.316;18.908;2024-03-06T11:17:46;20.52;;;11.15;;
70707;SDS011;58277;47.316;18.908;2024-03-06T11:20:13;19.15;;;10.35;;
70707;SDS011;58277;47.316;18.908;2024-03-06T11:28:16;18.38;;;9.77;;
70707;SDS011;58277;47.316;18.908;2024-03-06T11:30:46;19.85;;;9.82;;
70707;SDS011;58277;47.316;18.908;2024-03-06T11:33:11;18.27;;;9.82;;
70707;SDS011;58277;47.316;18.908;2024-03-06T11:35:35;18.63;;;9.63;;
70707;SDS011;58277;47.316;18.908;2024-03-06T11:38:00;18.37;;;9.63;;
70707;SDS011;58277;47.316;18.908;2024-03-06T11:40:24;18.58;;;9.63;;
70707;SDS011;58277;47.316;18.908;2024-03-06T11:42:48;16.55;;;9.40;;
70707;SDS011;58277;47.316;18.908;2024-03-06T11:45:17;17.00;;;9.68;;
70707;SDS011;58277;47.316;18.908;2024-03-06T11:48:02;18.77;;;10.18;;
70707;SDS011;58277;47.316;18.908;2024-03-06T11:50:26;20.83;;;10.90;;
70707;SDS011;58277;47.316;18.908;2024-03-06T11:52:53;18.65;;;10.00;;
70707;SDS011;58277;47.316;18.908;2024-03-06T11:55:20;21.10;;;10.50;;
70707;SDS011;58277;47.316;18.908;2024-03-06T11:57:46;17.85;;;9.25;;
70707;SDS011;58277;47.316;18.908;2024-03-06T12:00:10;18.88;;;9.90;;
70707;SDS011;58277;47.316;18.908;2024-03-06T12:02:36;17.10;;;9.70;;
70707;SDS011;58277;47.316;18.908;2024-03-06T12:05:01;18.17;;;9.73;;
70707;SDS011;58277;47.316;18.908;2024-03-06T12:07:25;17.65;;;8.75;;
70707;SDS011;58277;47.316;18.908;2024-03-06T12:09:48;17.02;;;9.15;;
70707;SDS011;58277;47.316;18.908;2024-03-06T12:12:11;17.05;;;9.82;;
70707;SDS011;58277;47.316;18.908;2024-03-06T12:14:38;18.67;;;9.37;;
70707;SDS011;58277;47.316;18.908;2024-03-06T12:17:04;19.05;;;10.40;;
70707;SDS011;58277;47.316;18.908;2024-03-06T12:19:27;18.25;;;10.55;;
70707;SDS011;58277;47.316;18.908;2024-03-06T12:21:52;23.38;;;11.40;;
70707;SDS011;58277;47.316;18.908;2024-03-06T12:24:16;22.15;;;11.82;;
70707;SDS011;58277;47.316;18.908;2024-03-06T12:26:41;20.87;;;11.23;;
70707;SDS011;58277;47.316;18.908;2024-03-06T12:29:11;20.83;;;11.80;;
70707;SDS011;58277;47.316;18.908;2024-03-06T12:31:34;21.02;;;11.75;;
70707;SDS011;58277;47.316;18.908;2024-03-06T12:33:59;20.23;;;11.55;;
70707;SDS011;58277;47.316;18.908;2024-03-06T12:36:26;23.75;;;11.50;;
70707;SDS011;58277;47.316;18.908;2024-03-06T12:38:54;20.37;;;11.53;;
70707;SDS011;58277;47.316;18.908;2024-03-06T12:41:17;24.05;;;11.55;;
70707;SDS011;58277;47.316;18.908;2024-03-06T12:43:43;21.35;;;11.70;;
70707;SDS011;58277;47.316;18.908;2024-03-06T12:46:06;24.63;;;11.40;;
70707;SDS011;58277;47.316;18.908;2024-03-06T12:48:29;19.95;;;10.98;;
70707;SDS011;58277;47.316;18.908;2024-03-06T12:50:52;23.20;;;11.13;;
70707;SDS011;58277;47.316;18.908;2024-03-06T12:53:20;21.48;;;11.48;;
70707;SDS011;58277;47.316;18.908;2024-03-06T12:55:44;19.70;;;10.38;;
70707;SDS011;58277;47.316;18.908;2024-03-06T12:58:08;22.50;;;11.38;;
70707;SDS011;58277;47.316;18.908;2024-03-06T13:00:31;23.63;;;11.18;;
70707;SDS011;58277;47.316;18.908;2024-03-06T13:02:54;25.10;;;12.33;;
70707;SDS011;58277;47.316;18.908;2024-03-06T13:05:17;24.02;;;11.75;;
70707;SDS011;58277;47.316;18.908;2024-03-06T13:07:42;21.02;;;11.25;;
70707;SDS011;58277;47.316;18.908;2024-03-06T13:10:06;19.45;;;10.95;;
70707;SDS011;58277;47.316;18.908;2024-03-06T13:12:32;22.40;;;11.05;;
70707;SDS011;58277;47.316;18.908;2024-03-06T13:14:56;19.07;;;10.50;;
70707;SDS011;58277;47.316;18.908;2024-03-06T13:17:19;20.00;;;10.52;;
70707;SDS011;58277;47.316;18.908;2024-03-06T13:19:42;19.52;;;9.93;;
70707;SDS011;58277;47.316;18.908;2024-03-06T13:22:05;19.65;;;10.27;;
70707;SDS011;58277;47.316;18.908;2024-03-06T13:24:30;20.40;;;10.40;;
70707;SDS011;58277;47.316;18.908;2024-03-06T13:26:53;20.53;;;9.77;;
70707;SDS011;58277;47.316;18.908;2024-03-06T13:29:16;21.27;;;10.13;;
70707;SDS011;58277;47.316;18.908;2024-03-06T13:31:39;21.33;;;10.32;;
70707;SDS011;58277;47.316;18.908;2024-03-06T13:34:02;20.48;;;9.63;;
70707;SDS011;58277;47.316;18.908;2024-03-06T13:36:26;17.92;;;9.43;;
70707;SDS011;58277;47.316;18.908;2024-03-06T13:38:49;18.67;;;10.23;;
70707;SDS011;58277;47.316;18.908;2024-03-06T13:41:15;18.13;;;9.32;;
70707;SDS011;58277;47.316;18.908;2024-03-06T13:43:39;19.65;;;9.93;;
70707;SDS011;58277;47.316;18.908;2024-03-06T13:46:03;19.05;;;10.00;;
70707;SDS011;58277;47.316;18.908;2024-03-06T13:48:27;16.60;;;9.05;;
70707;SDS011;58277;47.316;18.908;2024-03-06T13:50:50;19.43;;;9.97;;
70707;SDS011;58277;47.316;18.908;2024-03-06T13:53:14;19.95;;;9.73;;
70707;SDS011;58277;47.316;18.908;2024-03-06T13:55:37;18.85;;;10.10;;
70707;SDS011;58277;47.316;18.908;2024-03-06T13:58:02;19.50;;;9.50;;
70707;SDS011;58277;47.316;18.908;2024-03-06T14:00:26;17.10;;;10.02;;
70707;SDS011;58277;47.316;18.908;2024-03-06T14:02:49;17.50;;;9.00;;
70707;SDS011;58277;47.316;18.908;2024-03-06T14:05:13;19.30;;;9.98;;